Weather at Omak Airport

Public forecast

Using degrees Fahrenheit for public forecast. Weather courtesy of forecast.io.

Current aviation weather report (METAR) for Omak Airport

Retrieved 2021/04/12 15:53 UTC (59 minutes ago):

KOMK 121553Z AUTO 36011KT 10SM CLR 06/M08 A3035 RMK AO2 SLP287 T00611078

Closest aviation forecast (TAF) to Omak Airport

Closest forecast is Penticton Airport, 60.1 nm (111.2 km) N. Retrieved 2021/04/12 13:42 UTC (3 hours ago):

TAF CYYF 121238Z 1213/1301 36005KT P6SM SCT100 TEMPO 1213/1218 BKN090 BECMG 1216/1218 32012KT RMK NXT FCST BY 121900Z